sensor_id;sensor_type;location;lat;lon;timestamp;pressure;altitude;pressure_sealevel;temperature;humidity
63339;BME280;70568;51.378;-1.342;2023-12-29T00:02:08;99219.04;;;2.49;47.70
63339;BME280;70568;51.378;-1.342;2023-12-29T00:04:35;99215.60;;;2.55;46.84
63339;BME280;70568;51.378;-1.342;2023-12-29T00:07:02;99205.77;;;2.97;46.64
63339;BME280;70568;51.378;-1.342;2023-12-29T00:09:28;99210.76;;;2.61;47.99
63339;BME280;70568;51.378;-1.342;2023-12-29T00:11:55;99216.24;;;2.01;46.89
63339;BME280;70568;51.378;-1.342;2023-12-29T00:14:22;99214.64;;;3.06;47.31
63339;BME280;70568;51.378;-1.342;2023-12-29T00:16:48;99211.23;;;2.48;46.87
63339;BME280;70568;51.378;-1.342;2023-12-29T00:19:16;99204.93;;;3.11;45.51
63339;BME280;70568;51.378;-1.342;2023-12-29T00:21:43;99214.04;;;2.80;45.68
63339;BME280;70568;51.378;-1.342;2023-12-29T00:24:10;99207.08;;;3.36;48.11
63339;BME280;70568;51.378;-1.342;2023-12-29T00:26:37;99215.12;;;1.77;46.55
63339;BME280;70568;51.378;-1.342;2023-12-29T00:29:03;99224.90;;;3.38;46.73
63339;BME280;70568;51.378;-1.342;2023-12-29T00:31:30;99213.13;;;2.54;46.16
63339;BME280;70568;51.378;-1.342;2023-12-29T00:33:57;99213.66;;;3.09;44.93
63339;BME280;70568;51.378;-1.342;2023-12-29T00:36:24;99228.49;;;2.82;46.99
63339;BME280;70568;51.378;-1.342;2023-12-29T00:38:51;99227.00;;;2.24;48.28
63339;BME280;70568;51.378;-1.342;2023-12-29T00:41:18;99220.58;;;1.58;47.56
63339;BME280;70568;51.378;-1.342;2023-12-29T00:43:44;99224.63;;;2.96;45.13
63339;BME280;70568;51.378;-1.342;2023-12-29T00:46:14;99222.28;;;3.22;44.15
63339;BME280;70568;51.378;-1.342;2023-12-29T00:48:40;99229.17;;;2.92;43.80
63339;BME280;70568;51.378;-1.342;2023-12-29T00:51:07;99235.47;;;3.83;44.55
63339;BME280;70568;51.378;-1.342;2023-12-29T00:53:34;99242.77;;;2.44;45.89
63339;BME280;70568;51.378;-1.342;2023-12-29T00:56:01;99240.15;;;2.92;45.13
63339;BME280;70568;51.378;-1.342;2023-12-29T00:58:28;99229.91;;;3.23;46.00
63339;BME280;70568;51.378;-1.342;2023-12-29T01:00:55;99224.26;;;2.61;44.48
63339;BME280;70568;51.378;-1.342;2023-12-29T01:03:22;99224.22;;;2.83;44.74
63339;BME280;70568;51.378;-1.342;2023-12-29T01:05:49;99224.63;;;3.32;44.21
63339;BME280;70568;51.378;-1.342;2023-12-29T01:08:15;99225.76;;;2.32;43.49
63339;BME280;70568;51.378;-1.342;2023-12-29T01:10:42;99230.56;;;2.54;47.67
63339;BME280;70568;51.378;-1.342;2023-12-29T01:13:09;99225.69;;;2.47;47.92
63339;BME280;70568;51.378;-1.342;2023-12-29T01:15:35;99219.23;;;1.98;46.94
63339;BME280;70568;51.378;-1.342;2023-12-29T01:18:03;99219.83;;;3.43;46.50
63339;BME280;70568;51.378;-1.342;2023-12-29T01:20:29;99220.09;;;2.95;47.12
63339;BME280;70568;51.378;-1.342;2023-12-29T01:22:56;99211.91;;;1.92;47.22
63339;BME280;70568;51.378;-1.342;2023-12-29T01:25:23;99213.61;;;2.95;46.57
63339;BME280;70568;51.378;-1.342;2023-12-29T01:27:50;99217.18;;;2.70;46.95
63339;BME280;70568;51.378;-1.342;2023-12-29T01:30:17;99212.35;;;2.38;45.55
63339;BME280;70568;51.378;-1.342;2023-12-29T01:32:43;99207.91;;;3.23;45.24
63339;BME280;70568;51.378;-1.342;2023-12-29T01:35:10;99207.48;;;2.58;47.57
63339;BME280;70568;51.378;-1.342;2023-12-29T01:37:37;99199.73;;;2.55;47.74
63339;BME280;70568;51.378;-1.342;2023-12-29T01:40:04;99207.55;;;3.63;47.79
63339;BME280;70568;51.378;-1.342;2023-12-29T01:42:31;99201.20;;;3.18;45.82
63339;BME280;70568;51.378;-1.342;2023-12-29T01:44:58;99191.90;;;3.17;45.48
63339;BME280;70568;51.378;-1.342;2023-12-29T01:47:25;99189.30;;;3.35;45.48
63339;BME280;70568;51.378;-1.342;2023-12-29T01:49:51;99192.54;;;2.78;46.67
63339;BME280;70568;51.378;-1.342;2023-12-29T01:52:20;99183.86;;;2.11;46.57
63339;BME280;70568;51.378;-1.342;2023-12-29T01:54:49;99179.68;;;2.70;46.39
63339;BME280;70568;51.378;-1.342;2023-12-29T01:57:17;99176.58;;;3.19;46.97
63339;BME280;70568;51.378;-1.342;2023-12-29T01:59:43;99179.00;;;2.65;46.54
63339;BME280;70568;51.378;-1.342;2023-12-29T02:02:10;99176.41;;;3.91;46.71
63339;BME280;70568;51.378;-1.342;2023-12-29T02:04:38;99188.87;;;3.22;45.86
63339;BME280;70568;51.378;-1.342;2023-12-29T02:07:06;99190.99;;;3.33;47.17
63339;BME280;70568;51.378;-1.342;2023-12-29T02:09:34;99192.71;;;1.65;47.34
63339;BME280;70568;51.378;-1.342;2023-12-29T02:12:02;99193.18;;;3.23;47.74
63339;BME280;70568;51.378;-1.342;2023-12-29T02:14:28;99191.70;;;2.96;47.68
63339;BME280;70568;51.378;-1.342;2023-12-29T02:17:01;99197.72;;;2.34;47.98
63339;BME280;70568;51.378;-1.342;2023-12-29T02:19:37;99203.29;;;2.62;47.86
63339;BME280;70568;51.378;-1.342;2023-12-29T02:22:04;99206.50;;;2.95;47.67
63339;BME280;70568;51.378;-1.342;2023-12-29T02:24:33;99196.10;;;1.36;49.59
63339;BME280;70568;51.378;-1.342;2023-12-29T02:27:06;99197.63;;;2.57;46.93
63339;BME280;70568;51.378;-1.342;2023-12-29T02:29:36;99190.12;;;2.96;45.20
63339;BME280;70568;51.378;-1.342;2023-12-29T02:32:06;99198.90;;;3.22;47.23
63339;BME280;70568;51.378;-1.342;2023-12-29T02:34:37;99207.71;;;2.12;48.76
63339;BME280;70568;51.378;-1.342;2023-12-29T02:37:05;99203.94;;;2.19;48.83
63339;BME280;70568;51.378;-1.342;2023-12-29T02:39:32;99208.68;;;2.16;50.81
63339;BME280;70568;51.378;-1.342;2023-12-29T02:41:59;99202.70;;;2.78;49.84
63339;BME280;70568;51.378;-1.342;2023-12-29T02:44:25;99206.92;;;3.15;49.43
63339;BME280;70568;51.378;-1.342;2023-12-29T02:46:52;99211.24;;;4.22;48.58
63339;BME280;70568;51.378;-1.342;2023-12-29T02:49:19;99211.37;;;3.06;47.61
63339;BME280;70568;51.378;-1.342;2023-12-29T02:51:46;99216.84;;;2.54;48.39
63339;BME280;70568;51.378;-1.342;2023-12-29T02:54:13;99214.05;;;2.57;50.54
63339;BME280;70568;51.378;-1.342;2023-12-29T02:56:40;99213.75;;;1.72;51.36
63339;BME280;70568;51.378;-1.342;2023-12-29T02:59:07;99209.45;;;2.73;49.49
63339;BME280;70568;51.378;-1.342;2023-12-29T03:01:33;99200.21;;;2.81;49.92
63339;BME280;70568;51.378;-1.342;2023-12-29T03:04:00;99192.87;;;3.05;49.08
63339;BME280;70568;51.378;-1.342;2023-12-29T03:06:28;99197.96;;;2.16;50.53
63339;BME280;70568;51.378;-1.342;2023-12-29T03:08:55;99193.24;;;2.65;50.48
63339;BME280;70568;51.378;-1.342;2023-12-29T03:11:22;99187.94;;;2.27;50.03
63339;BME280;70568;51.378;-1.342;2023-12-29T03:13:48;99199.87;;;2.35;52.87
63339;BME280;70568;51.378;-1.342;2023-12-29T03:16:15;99195.29;;;1.96;54.01
63339;BME280;70568;51.378;-1.342;2023-12-29T03:18:42;99191.87;;;1.64;57.08
63339;BME280;70568;51.378;-1.342;2023-12-29T03:21:09;99179.29;;;1.57;56.09
63339;BME280;70568;51.378;-1.342;2023-12-29T03:23:35;99172.57;;;2.16;51.26
63339;BME280;70568;51.378;-1.342;2023-12-29T03:26:03;99165.42;;;3.53;47.11
63339;BME280;70568;51.378;-1.342;2023-12-29T03:28:30;99162.42;;;4.52;47.68
63339;BME280;70568;51.378;-1.342;2023-12-29T03:30:57;99170.77;;;3.05;51.99
63339;BME280;70568;51.378;-1.342;2023-12-29T03:33:24;99169.74;;;3.69;50.12
63339;BME280;70568;51.378;-1.342;2023-12-29T03:35:51;99171.94;;;3.78;50.50
63339;BME280;70568;51.378;-1.342;2023-12-29T03:38:17;99157.11;;;2.76;49.74
63339;BME280;70568;51.378;-1.342;2023-12-29T03:40:43;99164.76;;;2.87;50.43
63339;BME280;70568;51.378;-1.342;2023-12-29T03:43:10;99165.10;;;3.58;50.82
63339;BME280;70568;51.378;-1.342;2023-12-29T03:45:37;99169.84;;;2.81;49.45
63339;BME280;70568;51.378;-1.342;2023-12-29T03:48:04;99160.10;;;2.42;50.10
63339;BME280;70568;51.378;-1.342;2023-12-29T03:50:31;99165.18;;;2.86;48.29
63339;BME280;70568;51.378;-1.342;2023-12-29T03:52:58;99162.94;;;3.57;50.57
63339;BME280;70568;51.378;-1.342;2023-12-29T03:55:24;99160.21;;;2.83;50.36
63339;BME280;70568;51.378;-1.342;2023-12-29T03:57:51;99151.46;;;2.70;48.47
63339;BME280;70568;51.378;-1.342;2023-12-29T04:00:19;99156.35;;;4.76;48.05
63339;BME280;70568;51.378;-1.342;2023-12-29T04:02:45;99165.69;;;2.16;51.11
63339;BME280;70568;51.378;-1.342;2023-12-29T04:05:12;99154.22;;;2.39;53.13
63339;BME280;70568;51.378;-1.342;2023-12-29T04:07:39;99155.98;;;2.63;51.95
63339;BME280;70568;51.378;-1.342;2023-12-29T04:10:06;99151.16;;;3.37;49.67
63339;BME280;70568;51.378;-1.342;2023-12-29T04:12:33;99147.97;;;3.30;50.51
63339;BME280;70568;51.378;-1.342;2023-12-29T04:15:00;99141.08;;;4.21;47.54
63339;BME280;70568;51.378;-1.342;2023-12-29T04:17:26;99137.96;;;4.75;47.10
63339;BME280;70568;51.378;-1.342;2023-12-29T04:19:53;99139.26;;;3.76;48.67
63339;BME280;70568;51.378;-1.342;2023-12-29T04:22:20;99141.07;;;4.17;49.83
63339;BME280;70568;51.378;-1.342;2023-12-29T04:24:47;99142.74;;;3.95;50.88
63339;BME280;70568;51.378;-1.342;2023-12-29T04:27:15;99136.11;;;3.63;49.90
63339;BME280;70568;51.378;-1.342;2023-12-29T04:29:43;99129.27;;;3.87;49.66
63339;BME280;70568;51.378;-1.342;2023-12-29T04:32:10;99126.83;;;1.72;52.27
63339;BME280;70568;51.378;-1.342;2023-12-29T04:34:37;99122.11;;;3.74;51.87
63339;BME280;70568;51.378;-1.342;2023-12-29T04:37:03;99118.68;;;3.39;51.17
63339;BME280;70568;51.378;-1.342;2023-12-29T04:39:30;99130.41;;;2.44;53.49
63339;BME280;70568;51.378;-1.342;2023-12-29T04:41:57;99123.75;;;1.54;54.39
63339;BME280;70568;51.378;-1.342;2023-12-29T04:44:24;99129.23;;;2.29;53.89
63339;BME280;70568;51.378;-1.342;2023-12-29T04:46:50;99139.08;;;2.70;53.28
63339;BME280;70568;51.378;-1.342;2023-12-29T04:49:17;99134.45;;;2.06;53.37
63339;BME280;70568;51.378;-1.342;2023-12-29T04:51:43;99135.01;;;3.00;50.68
63339;BME280;70568;51.378;-1.342;2023-12-29T04:54:10;99126.94;;;2.23;52.98
63339;BME280;70568;51.378;-1.342;2023-12-29T04:56:36;99132.47;;;1.81;53.87
63339;BME280;70568;51.378;-1.342;2023-12-29T04:59:03;99138.60;;;2.68;52.73
63339;BME280;70568;51.378;-1.342;2023-12-29T05:01:29;99140.32;;;2.11;54.10
63339;BME280;70568;51.378;-1.342;2023-12-29T05:03:56;99151.04;;;2.78;53.35
63339;BME280;70568;51.378;-1.342;2023-12-29T05:06:22;99150.61;;;3.20;51.96
63339;BME280;70568;51.378;-1.342;2023-12-29T05:08:49;99156.73;;;2.51;49.95
63339;BME280;70568;51.378;-1.342;2023-12-29T05:11:15;99153.96;;;1.87;53.62
63339;BME280;70568;51.378;-1.342;2023-12-29T05:13:42;99160.93;;;2.23;52.70
63339;BME280;70568;51.378;-1.342;2023-12-29T05:16:08;99167.67;;;2.73;52.57
63339;BME280;70568;51.378;-1.342;2023-12-29T05:18:35;99165.41;;;2.15;54.07
63339;BME280;70568;51.378;-1.342;2023-12-29T05:21:02;99166.23;;;1.63;54.82
63339;BME280;70568;51.378;-1.342;2023-12-29T05:23:29;99158.70;;;2.24;51.86
63339;BME280;70568;51.378;-1.342;2023-12-29T05:25:56;99160.25;;;3.70;52.24
63339;BME280;70568;51.378;-1.342;2023-12-29T05:28:22;99169.41;;;2.51;55.16
63339;BME280;70568;51.378;-1.342;2023-12-29T05:30:49;99171.91;;;1.71;52.56
63339;BME280;70568;51.378;-1.342;2023-12-29T05:33:16;99179.33;;;3.05;54.22
63339;BME280;70568;51.378;-1.342;2023-12-29T05:35:44;99174.92;;;1.69;54.94
63339;BME280;70568;51.378;-1.342;2023-12-29T05:38:10;99182.32;;;2.44;54.10
63339;BME280;70568;51.378;-1.342;2023-12-29T05:40:37;99185.69;;;2.34;54.58
63339;BME280;70568;51.378;-1.342;2023-12-29T05:43:03;99183.06;;;2.18;52.88
63339;BME280;70568;51.378;-1.342;2023-12-29T05:45:30;99190.13;;;2.16;54.93
63339;BME280;70568;51.378;-1.342;2023-12-29T05:47:57;99188.10;;;2.22;55.07
63339;BME280;70568;51.378;-1.342;2023-12-29T05:50:23;99186.59;;;2.21;54.42
63339;BME280;70568;51.378;-1.342;2023-12-29T05:52:50;99190.60;;;1.93;55.43
63339;BME280;70568;51.378;-1.342;2023-12-29T05:55:17;99195.44;;;2.34;56.66
63339;BME280;70568;51.378;-1.342;2023-12-29T05:57:44;99194.08;;;2.15;55.52
63339;BME280;70568;51.378;-1.342;2023-12-29T06:00:11;99193.58;;;2.07;56.45
63339;BME280;70568;51.378;-1.342;2023-12-29T06:02:39;99187.35;;;1.74;54.21
63339;BME280;70568;51.378;-1.342;2023-12-29T06:05:06;99198.93;;;2.52;53.10
63339;BME280;70568;51.378;-1.342;2023-12-29T06:07:33;99193.64;;;1.96;55.29
63339;BME280;70568;51.378;-1.342;2023-12-29T06:10:00;99205.55;;;2.72;57.78
63339;BME280;70568;51.378;-1.342;2023-12-29T06:12:26;99202.13;;;2.04;58.78
63339;BME280;70568;51.378;-1.342;2023-12-29T06:14:53;99201.24;;;1.65;55.75
63339;BME280;70568;51.378;-1.342;2023-12-29T06:17:21;99201.49;;;3.52;52.70
63339;BME280;70568;51.378;-1.342;2023-12-29T06:19:48;99209.80;;;2.99;55.30
63339;BME280;70568;51.378;-1.342;2023-12-29T06:22:14;99214.55;;;2.47;53.59
63339;BME280;70568;51.378;-1.342;2023-12-29T06:24:41;99205.99;;;2.82;52.23
63339;BME280;70568;51.378;-1.342;2023-12-29T06:27:08;99206.97;;;3.03;53.05
63339;BME280;70568;51.378;-1.342;2023-12-29T06:29:35;99205.46;;;3.13;53.95
63339;BME280;70568;51.378;-1.342;2023-12-29T06:32:02;99203.97;;;2.82;52.74
63339;BME280;70568;51.378;-1.342;2023-12-29T06:34:29;99210.38;;;3.20;53.48
63339;BME280;70568;51.378;-1.342;2023-12-29T06:36:56;99210.36;;;2.18;53.43
63339;BME280;70568;51.378;-1.342;2023-12-29T06:39:22;99214.37;;;1.72;52.32
63339;BME280;70568;51.378;-1.342;2023-12-29T06:41:49;99207.60;;;2.53;52.26
63339;BME280;70568;51.378;-1.342;2023-12-29T06:44:16;99209.73;;;1.98;54.86
63339;BME280;70568;51.378;-1.342;2023-12-29T06:46:42;99203.79;;;3.18;53.06
63339;BME280;70568;51.378;-1.342;2023-12-29T06:49:09;99202.77;;;2.42;51.71
63339;BME280;70568;51.378;-1.342;2023-12-29T06:51:36;99204.74;;;2.82;51.53
63339;BME280;70568;51.378;-1.342;2023-12-29T06:54:02;99213.15;;;2.57;51.77
63339;BME280;70568;51.378;-1.342;2023-12-29T06:56:29;99208.68;;;2.42;52.64
63339;BME280;70568;51.378;-1.342;2023-12-29T06:58:55;99212.66;;;2.67;53.03
63339;BME280;70568;51.378;-1.342;2023-12-29T07:01:22;99217.06;;;2.84;51.96
63339;BME280;70568;51.378;-1.342;2023-12-29T07:03:49;99215.40;;;2.79;52.63
63339;BME280;70568;51.378;-1.342;2023-12-29T07:06:16;99218.97;;;2.83;53.12
63339;BME280;70568;51.378;-1.342;2023-12-29T07:08:43;99219.98;;;2.88;52.38
63339;BME280;70568;51.378;-1.342;2023-12-29T07:11:10;99226.72;;;2.32;53.86
63339;BME280;70568;51.378;-1.342;2023-12-29T07:13:37;99226.57;;;2.89;53.72
63339;BME280;70568;51.378;-1.342;2023-12-29T07:16:04;99225.45;;;1.56;51.97
63339;BME280;70568;51.378;-1.342;2023-12-29T07:18:31;99222.94;;;2.65;50.86
63339;BME280;70568;51.378;-1.342;2023-12-29T07:20:57;99218.20;;;4.41;47.59
63339;BME280;70568;51.378;-1.342;2023-12-29T07:23:24;99215.62;;;4.44;47.11
63339;BME280;70568;51.378;-1.342;2023-12-29T07:25:51;99219.04;;;3.61;49.32
63339;BME280;70568;51.378;-1.342;2023-12-29T07:28:18;99212.91;;;4.79;46.50
63339;BME280;70568;51.378;-1.342;2023-12-29T07:30:45;99218.12;;;4.63;46.52
63339;BME280;70568;51.378;-1.342;2023-12-29T07:33:11;99219.50;;;4.34;47.59
63339;BME280;70568;51.378;-1.342;2023-12-29T07:35:38;99220.51;;;4.03;47.25
63339;BME280;70568;51.378;-1.342;2023-12-29T07:38:05;99210.69;;;3.76;46.24
63339;BME280;70568;51.378;-1.342;2023-12-29T07:40:31;99211.32;;;4.40;45.33
63339;BME280;70568;51.378;-1.342;2023-12-29T07:42:58;99214.08;;;4.53;47.51
63339;BME280;70568;51.378;-1.342;2023-12-29T07:45:25;99223.97;;;3.66;49.47
63339;BME280;70568;51.378;-1.342;2023-12-29T07:47:51;99227.52;;;3.19;52.27
63339;BME280;70568;51.378;-1.342;2023-12-29T07:50:18;99228.62;;;2.30;50.72
63339;BME280;70568;51.378;-1.342;2023-12-29T07:52:45;99231.61;;;2.36;50.68
63339;BME280;70568;51.378;-1.342;2023-12-29T07:55:11;99225.37;;;2.75;48.91
63339;BME280;70568;51.378;-1.342;2023-12-29T07:57:38;99225.94;;;4.24;46.06
63339;BME280;70568;51.378;-1.342;2023-12-29T08:00:06;99227.21;;;3.53;46.27
63339;BME280;70568;51.378;-1.342;2023-12-29T08:02:32;99222.41;;;4.31;44.20
63339;BME280;70568;51.378;-1.342;2023-12-29T08:04:59;99222.97;;;5.29;42.26
63339;BME280;70568;51.378;-1.342;2023-12-29T08:07:25;99221.30;;;4.69;43.04
63339;BME280;70568;51.378;-1.342;2023-12-29T08:09:52;99222.96;;;6.34;40.78
63339;BME280;70568;51.378;-1.342;2023-12-29T08:12:19;99222.65;;;6.46;40.86
63339;BME280;70568;51.378;-1.342;2023-12-29T08:14:46;99222.68;;;5.31;42.28
63339;BME280;70568;51.378;-1.342;2023-12-29T08:17:13;99224.06;;;5.09;41.30
63339;BME280;70568;51.378;-1.342;2023-12-29T08:19:40;99225.10;;;5.30;40.93
63339;BME280;70568;51.378;-1.342;2023-12-29T08:22:06;99222.58;;;6.19;40.54
63339;BME280;70568;51.378;-1.342;2023-12-29T08:24:33;99224.94;;;3.33;42.78
63339;BME280;70568;51.378;-1.342;2023-12-29T08:27:01;99228.70;;;4.81;41.47
63339;BME280;70568;51.378;-1.342;2023-12-29T08:29:28;99228.48;;;6.04;41.26
63339;BME280;70568;51.378;-1.342;2023-12-29T08:31:56;99232.88;;;5.72;41.90
63339;BME280;70568;51.378;-1.342;2023-12-29T08:34:22;99241.51;;;3.62;43.36
63339;BME280;70568;51.378;-1.342;2023-12-29T08:36:49;99242.90;;;5.24;46.17
63339;BME280;70568;51.378;-1.342;2023-12-29T08:39:16;99239.26;;;4.53;46.08
63339;BME280;70568;51.378;-1.342;2023-12-29T08:41:42;99242.86;;;2.33;45.26
63339;BME280;70568;51.378;-1.342;2023-12-29T08:44:09;99238.23;;;5.15;43.42
63339;BME280;70568;51.378;-1.342;2023-12-29T08:46:36;99238.03;;;5.04;42.55
63339;BME280;70568;51.378;-1.342;2023-12-29T08:49:02;99242.40;;;5.22;42.09
63339;BME280;70568;51.378;-1.342;2023-12-29T08:51:29;99248.78;;;6.28;41.39
63339;BME280;70568;51.378;-1.342;2023-12-29T08:53:55;99247.89;;;4.05;40.89
63339;BME280;70568;51.378;-1.342;2023-12-29T08:56:22;99252.02;;;5.56;42.16
63339;BME280;70568;51.378;-1.342;2023-12-29T08:58:49;99250.51;;;4.64;42.17
63339;BME280;70568;51.378;-1.342;2023-12-29T09:01:16;99254.47;;;4.87;42.97
63339;BME280;70568;51.378;-1.342;2023-12-29T09:03:42;99250.95;;;4.37;43.07
63339;BME280;70568;51.378;-1.342;2023-12-29T09:06:09;99256.82;;;4.60;44.61
63339;BME280;70568;51.378;-1.342;2023-12-29T09:08:36;99259.21;;;4.01;43.11
63339;BME280;70568;51.378;-1.342;2023-12-29T09:11:03;99257.43;;;4.97;41.99
63339;BME280;70568;51.378;-1.342;2023-12-29T09:13:30;99257.45;;;5.28;43.04
63339;BME280;70568;51.378;-1.342;2023-12-29T09:15:58;99263.55;;;5.52;42.66
63339;BME280;70568;51.378;-1.342;2023-12-29T09:18:25;99263.23;;;4.52;41.87
63339;BME280;70568;51.378;-1.342;2023-12-29T09:20:51;99268.32;;;6.04;41.53
63339;BME280;70568;51.378;-1.342;2023-12-29T09:23:18;99272.09;;;5.51;40.33
63339;BME280;70568;51.378;-1.342;2023-12-29T09:25:44;99269.52;;;6.92;39.53
63339;BME280;70568;51.378;-1.342;2023-12-29T09:28:11;99268.13;;;5.55;40.38
63339;BME280;70568;51.378;-1.342;2023-12-29T09:30:37;99272.58;;;5.71;40.93
63339;BME280;70568;51.378;-1.342;2023-12-29T09:33:04;99270.48;;;6.21;40.64
63339;BME280;70568;51.378;-1.342;2023-12-29T09:35:31;99270.76;;;5.82;39.59
63339;BME280;70568;51.378;-1.342;2023-12-29T09:37:58;99272.81;;;6.37;39.86
63339;BME280;70568;51.378;-1.342;2023-12-29T09:40:24;99275.11;;;6.12;40.69
63339;BME280;70568;51.378;-1.342;2023-12-29T09:42:51;99264.31;;;4.54;41.41
63339;BME280;70568;51.378;-1.342;2023-12-29T09:45:23;99263.96;;;5.31;39.83
63339;BME280;70568;51.378;-1.342;2023-12-29T09:47:52;99263.68;;;6.93;40.06
63339;BME280;70568;51.378;-1.342;2023-12-29T09:50:19;99257.26;;;6.07;39.22
63339;BME280;70568;51.378;-1.342;2023-12-29T09:52:48;99261.54;;;6.56;38.84
63339;BME280;70568;51.378;-1.342;2023-12-29T09:55:15;99268.27;;;6.86;38.42
63339;BME280;70568;51.378;-1.342;2023-12-29T09:57:42;99269.65;;;6.37;38.81
63339;BME280;70568;51.378;-1.342;2023-12-29T10:00:11;99266.25;;;6.34;38.81
63339;BME280;70568;51.378;-1.342;2023-12-29T10:02:38;99268.55;;;8.92;38.38
63339;BME280;70568;51.378;-1.342;2023-12-29T10:05:06;99268.98;;;6.68;38.88
63339;BME280;70568;51.378;-1.342;2023-12-29T10:07:36;99268.37;;;6.71;38.02
63339;BME280;70568;51.378;-1.342;2023-12-29T10:10:04;99270.30;;;6.47;39.57
63339;BME280;70568;51.378;-1.342;2023-12-29T10:12:32;99271.95;;;7.13;39.34
63339;BME280;70568;51.378;-1.342;2023-12-29T10:15:05;99274.82;;;5.81;39.88
63339;BME280;70568;51.378;-1.342;2023-12-29T10:17:43;99275.51;;;6.06;39.99
63339;BME280;70568;51.378;-1.342;2023-12-29T10:20:33;99280.95;;;5.25;43.73
63339;BME280;70568;51.378;-1.342;2023-12-29T10:23:08;99271.67;;;6.68;41.73
63339;BME280;70568;51.378;-1.342;2023-12-29T10:25:36;99274.65;;;6.69;41.49
63339;BME280;70568;51.378;-1.342;2023-12-29T10:28:04;99271.89;;;5.78;41.27
63339;BME280;70568;51.378;-1.342;2023-12-29T10:30:32;99262.57;;;3.93;40.43
63339;BME280;70568;51.378;-1.342;2023-12-29T10:32:59;99264.96;;;7.25;37.39
63339;BME280;70568;51.378;-1.342;2023-12-29T10:35:26;99273.89;;;6.49;38.37
63339;BME280;70568;51.378;-1.342;2023-12-29T10:37:53;99267.21;;;5.54;39.04
63339;BME280;70568;51.378;-1.342;2023-12-29T10:40:21;99259.50;;;8.35;36.29
63339;BME280;70568;51.378;-1.342;2023-12-29T10:42:52;99251.34;;;8.06;35.56
63339;BME280;70568;51.378;-1.342;2023-12-29T10:45:19;99245.08;;;8.27;37.51
63339;BME280;70568;51.378;-1.342;2023-12-29T10:47:46;99240.00;;;6.36;39.07
63339;BME280;70568;51.378;-1.342;2023-12-29T10:50:13;99223.41;;;6.95;40.22
63339;BME280;70568;51.378;-1.342;2023-12-29T10:52:39;99216.34;;;5.28;40.59
63339;BME280;70568;51.378;-1.342;2023-12-29T10:55:07;99211.33;;;6.59;39.34
63339;BME280;70568;51.378;-1.342;2023-12-29T10:57:34;99215.56;;;7.24;40.72
63339;BME280;70568;51.378;-1.342;2023-12-29T11:00:01;99222.10;;;5.36;41.40
63339;BME280;70568;51.378;-1.342;2023-12-29T11:02:28;99214.42;;;6.84;42.00
63339;BME280;70568;51.378;-1.342;2023-12-29T11:05:03;99209.65;;;5.20;41.94
63339;BME280;70568;51.378;-1.342;2023-12-29T11:07:32;99201.66;;;5.87;41.49
63339;BME280;70568;51.378;-1.342;2023-12-29T11:10:00;99197.02;;;6.43;42.65
63339;BME280;70568;51.378;-1.342;2023-12-29T11:12:30;99195.90;;;5.79;44.15
63339;BME280;70568;51.378;-1.342;2023-12-29T11:14:56;99195.68;;;5.51;43.59
63339;BME280;70568;51.378;-1.342;2023-12-29T11:17:25;99206.64;;;6.57;45.22
63339;BME280;70568;51.378;-1.342;2023-12-29T11:19:52;99209.64;;;5.23;45.76
63339;BME280;70568;51.378;-1.342;2023-12-29T11:22:20;99206.59;;;4.25;46.19
63339;BME280;70568;51.378;-1.342;2023-12-29T11:24:48;99218.57;;;3.72;47.49
63339;BME280;70568;51.378;-1.342;2023-12-29T11:27:16;99218.04;;;3.86;48.16
63339;BME280;70568;51.378;-1.342;2023-12-29T11:29:43;99236.83;;;3.85;51.30
63339;BME280;70568;51.378;-1.342;2023-12-29T11:32:14;99238.19;;;2.47;53.91
63339;BME280;70568;51.378;-1.342;2023-12-29T11:34:49;99250.43;;;2.77;53.84
63339;BME280;70568;51.378;-1.342;2023-12-29T11:37:27;99247.56;;;2.12;54.81
63339;BME280;70568;51.378;-1.342;2023-12-29T11:40:01;99246.84;;;2.64;54.99
63339;BME280;70568;51.378;-1.342;2023-12-29T11:42:35;99246.31;;;2.09;52.48
63339;BME280;70568;51.378;-1.342;2023-12-29T11:45:24;99234.43;;;2.79;51.60
63339;BME280;70568;51.378;-1.342;2023-12-29T11:47:51;99237.19;;;3.06;53.17
63339;BME280;70568;51.378;-1.342;2023-12-29T11:50:27;99236.89;;;2.52;52.65
63339;BME280;70568;51.378;-1.342;2023-12-29T11:52:54;99239.29;;;1.41;53.53
63339;BME280;70568;51.378;-1.342;2023-12-29T11:55:21;99241.19;;;1.76;54.99
63339;BME280;70568;51.378;-1.342;2023-12-29T11:57:54;99250.32;;;2.52;53.27
63339;BME280;70568;51.378;-1.342;2023-12-29T12:00:40;99261.90;;;2.05;53.06
63339;BME280;70568;51.378;-1.342;2023-12-29T12:03:14;99256.38;;;3.19;50.44
63339;BME280;70568;51.378;-1.342;2023-12-29T12:05:45;99244.22;;;2.89;51.76
63339;BME280;70568;51.378;-1.342;2023-12-29T12:08:26;99233.54;;;2.67;51.03
63339;BME280;70568;51.378;-1.342;2023-12-29T12:10:53;99230.22;;;3.28;50.08
63339;BME280;70568;51.378;-1.342;2023-12-29T12:13:42;99218.69;;;2.95;49.34
63339;BME280;70568;51.378;-1.342;2023-12-29T12:16:09;99211.23;;;2.57;51.16
63339;BME280;70568;51.378;-1.342;2023-12-29T12:18:38;99210.13;;;3.28;49.76
63339;BME280;70568;51.378;-1.342;2023-12-29T12:21:06;99209.74;;;3.20;49.47
63339;BME280;70568;51.378;-1.342;2023-12-29T12:23:35;99222.16;;;3.62;49.95
63339;BME280;70568;51.378;-1.342;2023-12-29T12:26:04;99224.25;;;2.75;50.91
63339;BME280;70568;51.378;-1.342;2023-12-29T12:28:32;99230.50;;;3.88;49.64
63339;BME280;70568;51.378;-1.342;2023-12-29T12:31:07;99213.98;;;3.12;48.78
63339;BME280;70568;51.378;-1.342;2023-12-29T12:33:34;99210.32;;;2.26;50.34
63339;BME280;70568;51.378;-1.342;2023-12-29T12:36:00;99207.92;;;2.59;50.76
63339;BME280;70568;51.378;-1.342;2023-12-29T12:38:27;99200.85;;;3.38;50.49
63339;BME280;70568;51.378;-1.342;2023-12-29T12:40:53;99207.62;;;3.12;50.08
63339;BME280;70568;51.378;-1.342;2023-12-29T12:43:25;99206.23;;;4.21;48.57
63339;BME280;70568;51.378;-1.342;2023-12-29T12:45:54;99196.94;;;3.05;50.84
63339;BME280;70568;51.378;-1.342;2023-12-29T12:48:27;99203.58;;;3.14;48.65
63339;BME280;70568;51.378;-1.342;2023-12-29T12:50:55;99205.89;;;3.39;49.26
63339;BME280;70568;51.378;-1.342;2023-12-29T12:53:23;99210.39;;;2.41;49.34
63339;BME280;70568;51.378;-1.342;2023-12-29T12:55:50;99217.84;;;3.40;49.18
63339;BME280;70568;51.378;-1.342;2023-12-29T12:58:18;99237.54;;;4.30;48.71
63339;BME280;70568;51.378;-1.342;2023-12-29T13:00:45;99236.00;;;2.42;49.45
63339;BME280;70568;51.378;-1.342;2023-12-29T13:03:13;99246.44;;;2.75;51.93